sensor_id;sensor_type;location;lat;lon;timestamp;P1;durP1;ratioP1;P2;durP2;ratioP2
3004;SDS011;1512;51.486;6.610;2022-08-19T00:03:36;10.60;;;7.40;;
3004;SDS011;1512;51.486;6.610;2022-08-19T00:07:45;7.90;;;7.10;;
3004;SDS011;1512;51.486;6.610;2022-08-19T00:11:54;9.15;;;8.20;;
3004;SDS011;1512;51.486;6.610;2022-08-19T00:16:05;10.00;;;8.43;;
3004;SDS011;1512;51.486;6.610;2022-08-19T00:20:15;9.53;;;8.60;;
3004;SDS011;1512;51.486;6.610;2022-08-19T00:24:25;10.10;;;8.50;;
3004;SDS011;1512;51.486;6.610;2022-08-19T00:28:35;9.37;;;8.47;;
3004;SDS011;1512;51.486;6.610;2022-08-19T00:32:44;10.17;;;9.17;;
3004;SDS011;1512;51.486;6.610;2022-08-19T00:36:54;9.50;;;8.27;;
3004;SDS011;1512;51.486;6.610;2022-08-19T00:41:03;8.50;;;7.40;;
3004;SDS011;1512;51.486;6.610;2022-08-19T00:45:16;9.13;;;8.27;;
3004;SDS011;1512;51.486;6.610;2022-08-19T00:53:44;8.37;;;7.57;;
3004;SDS011;1512;51.486;6.610;2022-08-19T00:57:58;9.00;;;8.10;;
3004;SDS011;1512;51.486;6.610;2022-08-19T01:02:05;8.25;;;7.45;;
3004;SDS011;1512;51.486;6.610;2022-08-19T01:10:51;8.85;;;7.95;;
3004;SDS011;1512;51.486;6.610;2022-08-19T01:15:01;11.10;;;9.10;;
3004;SDS011;1512;51.486;6.610;2022-08-19T01:19:22;10.30;;;8.60;;
3004;SDS011;1512;51.486;6.610;2022-08-19T01:23:28;11.05;;;8.80;;
3004;SDS011;1512;51.486;6.610;2022-08-19T01:27:52;12.30;;;9.20;;
3004;SDS011;1512;51.486;6.610;2022-08-19T01:32:02;10.45;;;8.60;;
3004;SDS011;1512;51.486;6.610;2022-08-19T01:36:22;10.80;;;8.60;;
3004;SDS011;1512;51.486;6.610;2022-08-19T01:40:26;10.20;;;8.75;;
3004;SDS011;1512;51.486;6.610;2022-08-19T01:44:36;10.27;;;9.10;;
3004;SDS011;1512;51.486;6.610;2022-08-19T01:48:46;10.30;;;8.30;;
3004;SDS011;1512;51.486;6.610;2022-08-19T01:57:23;10.93;;;9.20;;
3004;SDS011;1512;51.486;6.610;2022-08-19T02:01:32;8.67;;;7.87;;
3004;SDS011;1512;51.486;6.610;2022-08-19T02:05:41;9.83;;;8.60;;
3004;SDS011;1512;51.486;6.610;2022-08-19T02:09:51;9.80;;;8.80;;
3004;SDS011;1512;51.486;6.610;2022-08-19T02:14:04;12.17;;;8.90;;
3004;SDS011;1512;51.486;6.610;2022-08-19T02:18:14;11.33;;;9.93;;
3004;SDS011;1512;51.486;6.610;2022-08-19T02:22:23;10.53;;;9.50;;
3004;SDS011;1512;51.486;6.610;2022-08-19T02:26:35;11.80;;;10.60;;
3004;SDS011;1512;51.486;6.610;2022-08-19T02:30:44;10.30;;;9.00;;
3004;SDS011;1512;51.486;6.610;2022-08-19T02:34:54;10.07;;;9.00;;
3004;SDS011;1512;51.486;6.610;2022-08-19T02:39:03;10.03;;;9.00;;
3004;SDS011;1512;51.486;6.610;2022-08-19T02:43:12;10.80;;;9.37;;
3004;SDS011;1512;51.486;6.610;2022-08-19T02:47:20;9.60;;;8.63;;
3004;SDS011;1512;51.486;6.610;2022-08-19T02:51:30;11.30;;;10.10;;
3004;SDS011;1512;51.486;6.610;2022-08-19T02:55:49;10.73;;;9.63;;
3004;SDS011;1512;51.486;6.610;2022-08-19T02:59:58;11.70;;;8.77;;
3004;SDS011;1512;51.486;6.610;2022-08-19T03:04:10;10.33;;;9.10;;
3004;SDS011;1512;51.486;6.610;2022-08-19T03:08:20;11.70;;;8.93;;
3004;SDS011;1512;51.486;6.610;2022-08-19T03:12:28;10.20;;;9.20;;
3004;SDS011;1512;51.486;6.610;2022-08-19T03:16:41;10.50;;;9.40;;
3004;SDS011;1512;51.486;6.610;2022-08-19T03:20:58;10.63;;;9.60;;
3004;SDS011;1512;51.486;6.610;2022-08-19T03:25:04;10.47;;;9.37;;
3004;SDS011;1512;51.486;6.610;2022-08-19T03:29:21;13.57;;;11.80;;
3004;SDS011;1512;51.486;6.610;2022-08-19T03:33:32;14.20;;;12.37;;
3004;SDS011;1512;51.486;6.610;2022-08-19T03:37:45;17.93;;;13.27;;
3004;SDS011;1512;51.486;6.610;2022-08-19T03:41:56;16.63;;;14.67;;
3004;SDS011;1512;51.486;6.610;2022-08-19T03:46:12;19.33;;;14.93;;
3004;SDS011;1512;51.486;6.610;2022-08-19T03:50:22;13.87;;;11.60;;
3004;SDS011;1512;51.486;6.610;2022-08-19T03:54:31;16.83;;;13.97;;
3004;SDS011;1512;51.486;6.610;2022-08-19T03:58:40;14.30;;;11.27;;
3004;SDS011;1512;51.486;6.610;2022-08-19T04:02:51;11.97;;;10.70;;
3004;SDS011;1512;51.486;6.610;2022-08-19T04:07:01;14.73;;;11.10;;
3004;SDS011;1512;51.486;6.610;2022-08-19T04:11:12;19.33;;;13.30;;
3004;SDS011;1512;51.486;6.610;2022-08-19T04:15:22;17.80;;;12.47;;
3004;SDS011;1512;51.486;6.610;2022-08-19T04:19:31;15.20;;;11.77;;
3004;SDS011;1512;51.486;6.610;2022-08-19T04:23:41;16.33;;;13.97;;
3004;SDS011;1512;51.486;6.610;2022-08-19T04:27:51;22.03;;;15.00;;
3004;SDS011;1512;51.486;6.610;2022-08-19T04:32:00;19.27;;;14.37;;
3004;SDS011;1512;51.486;6.610;2022-08-19T04:36:27;22.53;;;16.07;;
3004;SDS011;1512;51.486;6.610;2022-08-19T04:40:41;24.50;;;18.80;;
3004;SDS011;1512;51.486;6.610;2022-08-19T04:45:11;31.02;;;18.90;;
3004;SDS011;1512;51.486;6.610;2022-08-19T04:49:23;20.43;;;14.17;;
3004;SDS011;1512;51.486;6.610;2022-08-19T04:53:33;23.67;;;17.40;;
3004;SDS011;1512;51.486;6.610;2022-08-19T04:57:44;28.33;;;20.57;;
3004;SDS011;1512;51.486;6.610;2022-08-19T05:01:52;28.90;;;19.10;;
3004;SDS011;1512;51.486;6.610;2022-08-19T05:06:08;22.17;;;17.37;;
3004;SDS011;1512;51.486;6.610;2022-08-19T05:10:19;23.23;;;17.80;;
3004;SDS011;1512;51.486;6.610;2022-08-19T05:14:28;28.17;;;18.93;;
3004;SDS011;1512;51.486;6.610;2022-08-19T05:18:36;25.20;;;19.20;;
3004;SDS011;1512;51.486;6.610;2022-08-19T05:23:04;28.23;;;18.90;;
3004;SDS011;1512;51.486;6.610;2022-08-19T05:27:14;23.73;;;19.00;;
3004;SDS011;1512;51.486;6.610;2022-08-19T05:31:23;27.97;;;21.93;;
3004;SDS011;1512;51.486;6.610;2022-08-19T05:35:31;28.83;;;19.93;;
3004;SDS011;1512;51.486;6.610;2022-08-19T05:39:40;30.50;;;21.00;;
3004;SDS011;1512;51.486;6.610;2022-08-19T05:43:51;32.00;;;22.57;;
3004;SDS011;1512;51.486;6.610;2022-08-19T05:52:28;28.77;;;22.40;;
3004;SDS011;1512;51.486;6.610;2022-08-19T05:56:37;36.23;;;25.63;;
3004;SDS011;1512;51.486;6.610;2022-08-19T06:00:47;35.27;;;25.17;;
3004;SDS011;1512;51.486;6.610;2022-08-19T06:04:56;36.43;;;28.10;;
3004;SDS011;1512;51.486;6.610;2022-08-19T06:09:06;40.83;;;28.40;;
3004;SDS011;1512;51.486;6.610;2022-08-19T06:17:45;33.23;;;23.87;;
3004;SDS011;1512;51.486;6.610;2022-08-19T06:21:54;41.60;;;28.13;;
3004;SDS011;1512;51.486;6.610;2022-08-19T06:26:05;37.17;;;27.33;;
3004;SDS011;1512;51.486;6.610;2022-08-19T06:30:14;42.10;;;29.90;;
3004;SDS011;1512;51.486;6.610;2022-08-19T06:34:23;44.83;;;31.13;;
3004;SDS011;1512;51.486;6.610;2022-08-19T06:38:34;37.30;;;30.67;;
3004;SDS011;1512;51.486;6.610;2022-08-19T06:42:42;39.73;;;28.33;;
3004;SDS011;1512;51.486;6.610;2022-08-19T06:46:55;47.67;;;30.20;;
3004;SDS011;1512;51.486;6.610;2022-08-19T06:51:04;45.17;;;28.20;;
3004;SDS011;1512;51.486;6.610;2022-08-19T06:55:15;39.70;;;28.30;;
3004;SDS011;1512;51.486;6.610;2022-08-19T06:59:24;37.60;;;26.70;;
3004;SDS011;1512;51.486;6.610;2022-08-19T07:03:34;41.77;;;28.20;;
3004;SDS011;1512;51.486;6.610;2022-08-19T07:07:45;40.50;;;28.40;;
3004;SDS011;1512;51.486;6.610;2022-08-19T07:11:55;35.50;;;26.33;;
3004;SDS011;1512;51.486;6.610;2022-08-19T07:16:17;42.80;;;30.20;;
3004;SDS011;1512;51.486;6.610;2022-08-19T07:20:25;42.10;;;27.37;;
3004;SDS011;1512;51.486;6.610;2022-08-19T07:24:35;37.00;;;26.60;;
3004;SDS011;1512;51.486;6.610;2022-08-19T07:28:47;38.13;;;24.40;;
3004;SDS011;1512;51.486;6.610;2022-08-19T07:32:58;33.63;;;22.73;;
3004;SDS011;1512;51.486;6.610;2022-08-19T07:37:08;33.63;;;24.83;;
3004;SDS011;1512;51.486;6.610;2022-08-19T07:41:19;31.57;;;22.13;;
3004;SDS011;1512;51.486;6.610;2022-08-19T07:45:29;31.57;;;19.73;;
3004;SDS011;1512;51.486;6.610;2022-08-19T07:49:38;25.50;;;19.10;;
3004;SDS011;1512;51.486;6.610;2022-08-19T07:53:48;30.70;;;19.80;;
3004;SDS011;1512;51.486;6.610;2022-08-19T07:57:57;20.53;;;17.10;;
3004;SDS011;1512;51.486;6.610;2022-08-19T08:02:06;34.30;;;20.50;;
3004;SDS011;1512;51.486;6.610;2022-08-19T08:06:16;31.53;;;20.90;;
3004;SDS011;1512;51.486;6.610;2022-08-19T08:10:42;34.97;;;21.93;;
3004;SDS011;1512;51.486;6.610;2022-08-19T08:14:54;37.17;;;25.60;;
3004;SDS011;1512;51.486;6.610;2022-08-19T08:19:05;41.50;;;28.57;;
3004;SDS011;1512;51.486;6.610;2022-08-19T08:23:16;43.00;;;25.10;;
3004;SDS011;1512;51.486;6.610;2022-08-19T08:27:34;39.60;;;24.40;;
3004;SDS011;1512;51.486;6.610;2022-08-19T08:31:46;33.35;;;22.58;;
3004;SDS011;1512;51.486;6.610;2022-08-19T08:35:56;33.77;;;21.63;;
3004;SDS011;1512;51.486;6.610;2022-08-19T08:40:07;28.27;;;19.07;;
3004;SDS011;1512;51.486;6.610;2022-08-19T08:48:56;30.63;;;20.73;;
3004;SDS011;1512;51.486;6.610;2022-08-19T08:53:05;27.97;;;20.40;;
3004;SDS011;1512;51.486;6.610;2022-08-19T08:57:22;30.57;;;19.10;;
3004;SDS011;1512;51.486;6.610;2022-08-19T09:01:27;27.13;;;19.10;;
3004;SDS011;1512;51.486;6.610;2022-08-19T09:05:49;25.50;;;18.47;;
3004;SDS011;1512;51.486;6.610;2022-08-19T09:10:10;32.10;;;20.63;;
3004;SDS011;1512;51.486;6.610;2022-08-19T09:14:34;29.50;;;18.50;;
3004;SDS011;1512;51.486;6.610;2022-08-19T09:18:57;23.87;;;16.20;;
3004;SDS011;1512;51.486;6.610;2022-08-19T09:23:06;24.80;;;17.50;;
3004;SDS011;1512;51.486;6.610;2022-08-19T09:27:15;25.30;;;18.60;;
3004;SDS011;1512;51.486;6.610;2022-08-19T09:31:25;22.87;;;16.43;;
3004;SDS011;1512;51.486;6.610;2022-08-19T09:35:36;24.10;;;16.97;;
3004;SDS011;1512;51.486;6.610;2022-08-19T09:39:47;18.37;;;14.70;;
3004;SDS011;1512;51.486;6.610;2022-08-19T09:43:56;23.33;;;18.20;;
3004;SDS011;1512;51.486;6.610;2022-08-19T09:48:05;26.90;;;18.43;;
3004;SDS011;1512;51.486;6.610;2022-08-19T09:52:16;22.00;;;17.23;;
3004;SDS011;1512;51.486;6.610;2022-08-19T09:56:24;23.10;;;17.80;;
3004;SDS011;1512;51.486;6.610;2022-08-19T10:00:33;21.07;;;16.90;;
3004;SDS011;1512;51.486;6.610;2022-08-19T10:04:43;20.80;;;14.50;;
3004;SDS011;1512;51.486;6.610;2022-08-19T10:09:13;26.97;;;19.70;;
3004;SDS011;1512;51.486;6.610;2022-08-19T10:13:26;26.93;;;19.73;;
3004;SDS011;1512;51.486;6.610;2022-08-19T10:26:34;21.87;;;16.77;;
3004;SDS011;1512;51.486;6.610;2022-08-19T10:30:44;23.63;;;16.90;;
3004;SDS011;1512;51.486;6.610;2022-08-19T10:34:54;21.97;;;17.07;;
3004;SDS011;1512;51.486;6.610;2022-08-19T10:39:04;21.90;;;16.60;;
3004;SDS011;1512;51.486;6.610;2022-08-19T10:43:14;26.50;;;16.80;;
3004;SDS011;1512;51.486;6.610;2022-08-19T10:47:24;20.45;;;15.63;;
3004;SDS011;1512;51.486;6.610;2022-08-19T10:51:34;17.63;;;12.90;;
3004;SDS011;1512;51.486;6.610;2022-08-19T10:56:01;13.63;;;11.97;;
3004;SDS011;1512;51.486;6.610;2022-08-19T11:00:27;15.17;;;11.43;;
3004;SDS011;1512;51.486;6.610;2022-08-19T11:04:38;23.83;;;12.07;;
3004;SDS011;1512;51.486;6.610;2022-08-19T11:08:47;13.00;;;10.57;;
3004;SDS011;1512;51.486;6.610;2022-08-19T11:12:56;15.83;;;10.20;;
3004;SDS011;1512;51.486;6.610;2022-08-19T11:17:05;15.78;;;10.88;;
3004;SDS011;1512;51.486;6.610;2022-08-19T11:21:23;18.50;;;10.37;;
3004;SDS011;1512;51.486;6.610;2022-08-19T11:25:31;10.57;;;8.90;;
3004;SDS011;1512;51.486;6.610;2022-08-19T11:29:41;13.23;;;10.20;;
3004;SDS011;1512;51.486;6.610;2022-08-19T11:33:50;11.80;;;8.63;;
3004;SDS011;1512;51.486;6.610;2022-08-19T11:38:02;12.60;;;8.00;;
3004;SDS011;1512;51.486;6.610;2022-08-19T11:42:13;9.27;;;7.73;;
3004;SDS011;1512;51.486;6.610;2022-08-19T11:46:39;7.97;;;6.90;;
3004;SDS011;1512;51.486;6.610;2022-08-19T11:50:51;9.10;;;7.70;;
3004;SDS011;1512;51.486;6.610;2022-08-19T11:55:02;8.43;;;6.57;;
3004;SDS011;1512;51.486;6.610;2022-08-19T11:59:13;7.93;;;7.13;;
3004;SDS011;1512;51.486;6.610;2022-08-19T12:03:21;7.50;;;6.70;;
3004;SDS011;1512;51.486;6.610;2022-08-19T12:07:30;10.43;;;5.93;;
3004;SDS011;1512;51.486;6.610;2022-08-19T12:11:40;6.33;;;5.73;;
3004;SDS011;1512;51.486;6.610;2022-08-19T12:20:19;6.37;;;5.80;;
3004;SDS011;1512;51.486;6.610;2022-08-19T12:24:28;9.40;;;5.90;;
3004;SDS011;1512;51.486;6.610;2022-08-19T12:28:39;9.47;;;6.87;;
3004;SDS011;1512;51.486;6.610;2022-08-19T12:32:48;7.83;;;6.73;;
3004;SDS011;1512;51.486;6.610;2022-08-19T12:36:58;7.43;;;6.60;;
3004;SDS011;1512;51.486;6.610;2022-08-19T12:41:10;7.40;;;6.70;;
3004;SDS011;1512;51.486;6.610;2022-08-19T12:45:20;7.87;;;6.70;;
3004;SDS011;1512;51.486;6.610;2022-08-19T12:49:30;7.30;;;6.10;;
3004;SDS011;1512;51.486;6.610;2022-08-19T12:53:42;7.10;;;5.50;;
3004;SDS011;1512;51.486;6.610;2022-08-19T12:57:51;7.40;;;6.70;;
3004;SDS011;1512;51.486;6.610;2022-08-19T13:02:00;7.30;;;6.50;;
3004;SDS011;1512;51.486;6.610;2022-08-19T13:06:09;8.63;;;7.13;;
3004;SDS011;1512;51.486;6.610;2022-08-19T13:10:18;8.90;;;7.77;;
3004;SDS011;1512;51.486;6.610;2022-08-19T13:14:28;8.60;;;7.37;;
3004;SDS011;1512;51.486;6.610;2022-08-19T13:18:40;7.90;;;7.10;;
3004;SDS011;1512;51.486;6.610;2022-08-19T13:22:49;8.93;;;8.03;;
3004;SDS011;1512;51.486;6.610;2022-08-19T13:26:58;9.30;;;8.40;;
3004;SDS011;1512;51.486;6.610;2022-08-19T13:31:08;11.27;;;10.07;;
3004;SDS011;1512;51.486;6.610;2022-08-19T13:35:24;11.07;;;9.07;;
3004;SDS011;1512;51.486;6.610;2022-08-19T13:39:34;10.43;;;9.43;;
3004;SDS011;1512;51.486;6.610;2022-08-19T13:43:43;11.47;;;9.83;;
3004;SDS011;1512;51.486;6.610;2022-08-19T13:52:19;10.33;;;7.77;;
3004;SDS011;1512;51.486;6.610;2022-08-19T13:56:28;7.90;;;6.87;;
3004;SDS011;1512;51.486;6.610;2022-08-19T14:00:38;8.43;;;7.50;;
3004;SDS011;1512;51.486;6.610;2022-08-19T14:04:48;7.00;;;6.13;;
3004;SDS011;1512;51.486;6.610;2022-08-19T14:08:57;9.03;;;7.63;;
3004;SDS011;1512;51.486;6.610;2022-08-19T14:13:06;11.50;;;7.30;;
3004;SDS011;1512;51.486;6.610;2022-08-19T14:17:15;5.23;;;4.73;;
3004;SDS011;1512;51.486;6.610;2022-08-19T14:21:24;7.30;;;6.50;;
3004;SDS011;1512;51.486;6.610;2022-08-19T14:25:33;8.27;;;6.80;;
3004;SDS011;1512;51.486;6.610;2022-08-19T14:29:42;8.13;;;7.23;;
3004;SDS011;1512;51.486;6.610;2022-08-19T14:33:52;8.67;;;7.03;;
3004;SDS011;1512;51.486;6.610;2022-08-19T14:38:06;9.73;;;7.63;;
3004;SDS011;1512;51.486;6.610;2022-08-19T14:42:12;10.37;;;8.83;;
3004;SDS011;1512;51.486;6.610;2022-08-19T14:46:24;10.00;;;7.37;;
3004;SDS011;1512;51.486;6.610;2022-08-19T14:50:35;8.33;;;7.53;;
3004;SDS011;1512;51.486;6.610;2022-08-19T14:54:44;10.37;;;7.80;;
3004;SDS011;1512;51.486;6.610;2022-08-19T14:58:53;10.50;;;7.80;;
3004;SDS011;1512;51.486;6.610;2022-08-19T15:03:03;7.33;;;6.50;;
3004;SDS011;1512;51.486;6.610;2022-08-19T15:07:12;8.87;;;7.70;;
3004;SDS011;1512;51.486;6.610;2022-08-19T15:11:23;9.33;;;8.43;;
3004;SDS011;1512;51.486;6.610;2022-08-19T15:15:34;9.90;;;8.17;;
3004;SDS011;1512;51.486;6.610;2022-08-19T15:28:33;8.80;;;7.80;;
3004;SDS011;1512;51.486;6.610;2022-08-19T15:32:42;10.87;;;9.17;;
3004;SDS011;1512;51.486;6.610;2022-08-19T15:36:53;14.10;;;10.70;;
3004;SDS011;1512;51.486;6.610;2022-08-19T15:41:02;11.10;;;8.70;;
3004;SDS011;1512;51.486;6.610;2022-08-19T15:45:29;14.43;;;10.63;;
3004;SDS011;1512;51.486;6.610;2022-08-19T15:49:40;11.93;;;10.00;;
3004;SDS011;1512;51.486;6.610;2022-08-19T15:53:49;14.60;;;10.60;;
3004;SDS011;1512;51.486;6.610;2022-08-19T15:58:08;13.80;;;9.40;;
3004;SDS011;1512;51.486;6.610;2022-08-19T16:02:33;11.50;;;9.80;;
3004;SDS011;1512;51.486;6.610;2022-08-19T16:07:00;10.43;;;8.17;;
3004;SDS011;1512;51.486;6.610;2022-08-19T16:11:10;11.00;;;7.77;;
3004;SDS011;1512;51.486;6.610;2022-08-19T16:15:20;7.43;;;6.50;;
3004;SDS011;1512;51.486;6.610;2022-08-19T16:19:28;11.80;;;7.07;;
3004;SDS011;1512;51.486;6.610;2022-08-19T16:28:07;10.47;;;8.80;;
3004;SDS011;1512;51.486;6.610;2022-08-19T16:32:16;11.80;;;8.53;;
3004;SDS011;1512;51.486;6.610;2022-08-19T16:36:26;12.07;;;8.50;;
3004;SDS011;1512;51.486;6.610;2022-08-19T16:40:37;13.87;;;10.00;;
3004;SDS011;1512;51.486;6.610;2022-08-19T16:44:47;12.33;;;9.00;;
3004;SDS011;1512;51.486;6.610;2022-08-19T16:48:56;11.00;;;9.77;;
3004;SDS011;1512;51.486;6.610;2022-08-19T16:53:07;12.40;;;9.50;;
3004;SDS011;1512;51.486;6.610;2022-08-19T16:57:16;12.50;;;9.80;;
3004;SDS011;1512;51.486;6.610;2022-08-19T17:01:26;9.63;;;7.97;;
3004;SDS011;1512;51.486;6.610;2022-08-19T17:05:42;10.90;;;9.80;;
3004;SDS011;1512;51.486;6.610;2022-08-19T17:09:55;11.90;;;9.07;;
3004;SDS011;1512;51.486;6.610;2022-08-19T17:14:04;15.07;;;10.40;;
3004;SDS011;1512;51.486;6.610;2022-08-19T17:18:13;12.93;;;9.67;;
3004;SDS011;1512;51.486;6.610;2022-08-19T17:22:22;14.00;;;10.40;;
3004;SDS011;1512;51.486;6.610;2022-08-19T17:26:30;14.83;;;9.80;;
3004;SDS011;1512;51.486;6.610;2022-08-19T17:30:39;14.60;;;11.50;;
3004;SDS011;1512;51.486;6.610;2022-08-19T17:34:56;16.50;;;10.80;;
3004;SDS011;1512;51.486;6.610;2022-08-19T17:39:04;13.80;;;10.95;;
3004;SDS011;1512;51.486;6.610;2022-08-19T17:43:14;15.40;;;11.10;;
3004;SDS011;1512;51.486;6.610;2022-08-19T17:47:26;13.53;;;10.23;;
3004;SDS011;1512;51.486;6.610;2022-08-19T17:55:48;10.80;;;7.57;;
3004;SDS011;1512;51.486;6.610;2022-08-19T17:59:57;10.00;;;7.30;;
3004;SDS011;1512;51.486;6.610;2022-08-19T18:04:07;9.73;;;7.10;;
3004;SDS011;1512;51.486;6.610;2022-08-19T18:08:16;8.63;;;6.67;;
3004;SDS011;1512;51.486;6.610;2022-08-19T18:12:24;8.70;;;6.47;;
3004;SDS011;1512;51.486;6.610;2022-08-19T18:16:33;7.77;;;5.87;;
3004;SDS011;1512;51.486;6.610;2022-08-19T18:20:43;8.27;;;6.20;;
3004;SDS011;1512;51.486;6.610;2022-08-19T18:24:52;6.63;;;5.03;;
3004;SDS011;1512;51.486;6.610;2022-08-19T18:29:02;7.13;;;5.80;;
3004;SDS011;1512;51.486;6.610;2022-08-19T18:33:12;8.07;;;7.17;;
3004;SDS011;1512;51.486;6.610;2022-08-19T18:37:21;6.97;;;5.67;;
3004;SDS011;1512;51.486;6.610;2022-08-19T18:41:31;12.60;;;7.17;;
3004;SDS011;1512;51.486;6.610;2022-08-19T18:45:58;10.67;;;7.40;;
3004;SDS011;1512;51.486;6.610;2022-08-19T18:54:55;6.93;;;6.13;;
3004;SDS011;1512;51.486;6.610;2022-08-19T19:03:34;9.20;;;7.00;;
3004;SDS011;1512;51.486;6.610;2022-08-19T19:07:45;7.17;;;6.47;;
3004;SDS011;1512;51.486;6.610;2022-08-19T19:11:56;9.83;;;6.63;;
3004;SDS011;1512;51.486;6.610;2022-08-19T19:16:07;8.40;;;5.93;;
3004;SDS011;1512;51.486;6.610;2022-08-19T19:20:17;8.07;;;6.63;;
3004;SDS011;1512;51.486;6.610;2022-08-19T19:24:27;6.97;;;5.67;;
3004;SDS011;1512;51.486;6.610;2022-08-19T19:28:39;9.00;;;6.50;;
3004;SDS011;1512;51.486;6.610;2022-08-19T19:32:50;11.63;;;6.23;;
3004;SDS011;1512;51.486;6.610;2022-08-19T19:37:01;10.50;;;8.50;;
3004;SDS011;1512;51.486;6.610;2022-08-19T19:45:39;9.90;;;7.70;;
3004;SDS011;1512;51.486;6.610;2022-08-19T19:49:48;9.60;;;6.93;;
3004;SDS011;1512;51.486;6.610;2022-08-19T19:53:59;10.97;;;7.60;;
3004;SDS011;1512;51.486;6.610;2022-08-19T19:58:08;11.30;;;8.10;;
3004;SDS011;1512;51.486;6.610;2022-08-19T20:02:17;13.53;;;7.43;;
3004;SDS011;1512;51.486;6.610;2022-08-19T20:06:27;13.13;;;8.20;;
3004;SDS011;1512;51.486;6.610;2022-08-19T20:10:36;12.03;;;9.90;;
3004;SDS011;1512;51.486;6.610;2022-08-19T20:14:45;13.60;;;9.10;;
3004;SDS011;1512;51.486;6.610;2022-08-19T20:18:54;12.90;;;9.00;;
3004;SDS011;1512;51.486;6.610;2022-08-19T20:23:13;13.13;;;9.53;;
3004;SDS011;1512;51.486;6.610;2022-08-19T20:27:22;11.23;;;7.90;;
3004;SDS011;1512;51.486;6.610;2022-08-19T20:31:33;13.70;;;9.03;;
3004;SDS011;1512;51.486;6.610;2022-08-19T20:35:44;12.20;;;9.10;;
3004;SDS011;1512;51.486;6.610;2022-08-19T20:39:53;10.90;;;7.67;;
3004;SDS011;1512;51.486;6.610;2022-08-19T20:44:02;13.10;;;9.97;;
3004;SDS011;1512;51.486;6.610;2022-08-19T20:48:12;12.30;;;8.70;;
3004;SDS011;1512;51.486;6.610;2022-08-19T20:52:20;12.47;;;9.40;;
3004;SDS011;1512;51.486;6.610;2022-08-19T20:56:29;11.50;;;8.80;;
3004;SDS011;1512;51.486;6.610;2022-08-19T21:00:38;12.40;;;8.50;;
3004;SDS011;1512;51.486;6.610;2022-08-19T21:04:49;10.73;;;8.73;;
3004;SDS011;1512;51.486;6.610;2022-08-19T21:08:59;15.60;;;10.47;;
3004;SDS011;1512;51.486;6.610;2022-08-19T21:13:08;14.17;;;9.90;;
3004;SDS011;1512;51.486;6.610;2022-08-19T21:17:17;13.73;;;10.00;;
3004;SDS011;1512;51.486;6.610;2022-08-19T21:21:26;13.67;;;9.10;;
3004;SDS011;1512;51.486;6.610;2022-08-19T21:25:35;14.50;;;9.57;;
3004;SDS011;1512;51.486;6.610;2022-08-19T21:29:44;18.53;;;10.70;;
3004;SDS011;1512;51.486;6.610;2022-08-19T21:33:52;15.80;;;10.43;;
3004;SDS011;1512;51.486;6.610;2022-08-19T21:38:01;17.83;;;10.30;;
3004;SDS011;1512;51.486;6.610;2022-08-19T21:42:10;19.33;;;10.07;;
3004;SDS011;1512;51.486;6.610;2022-08-19T21:46:20;14.33;;;9.40;;
3004;SDS011;1512;51.486;6.610;2022-08-19T21:50:29;16.70;;;10.87;;
3004;SDS011;1512;51.486;6.610;2022-08-19T21:54:38;17.87;;;10.20;;
3004;SDS011;1512;51.486;6.610;2022-08-19T21:58:47;14.43;;;9.77;;
3004;SDS011;1512;51.486;6.610;2022-08-19T22:02:56;11.50;;;8.87;;
3004;SDS011;1512;51.486;6.610;2022-08-19T22:07:07;11.43;;;7.40;;
3004;SDS011;1512;51.486;6.610;2022-08-19T22:11:17;6.53;;;5.83;;
3004;SDS011;1512;51.486;6.610;2022-08-19T22:15:26;7.23;;;4.70;;
3004;SDS011;1512;51.486;6.610;2022-08-19T22:19:35;11.97;;;8.03;;
3004;SDS011;1512;51.486;6.610;2022-08-19T22:23:44;12.10;;;8.67;;
3004;SDS011;1512;51.486;6.610;2022-08-19T22:27:54;13.43;;;10.40;;
3004;SDS011;1512;51.486;6.610;2022-08-19T22:32:05;14.17;;;10.23;;
3004;SDS011;1512;51.486;6.610;2022-08-19T22:36:15;16.83;;;9.93;;
3004;SDS011;1512;51.486;6.610;2022-08-19T22:40:24;13.63;;;9.80;;
3004;SDS011;1512;51.486;6.610;2022-08-19T22:44:34;14.57;;;10.60;;
3004;SDS011;1512;51.486;6.610;2022-08-19T22:48:44;12.73;;;9.30;;
3004;SDS011;1512;51.486;6.610;2022-08-19T22:52:56;14.63;;;9.30;;
3004;SDS011;1512;51.486;6.610;2022-08-19T22:57:06;13.20;;;10.20;;
3004;SDS011;1512;51.486;6.610;2022-08-19T23:05:45;16.70;;;10.13;;
3004;SDS011;1512;51.486;6.610;2022-08-19T23:09:55;13.10;;;9.70;;
3004;SDS011;1512;51.486;6.610;2022-08-19T23:14:04;15.03;;;9.50;;
3004;SDS011;1512;51.486;6.610;2022-08-19T23:18:14;17.23;;;9.00;;
3004;SDS011;1512;51.486;6.610;2022-08-19T23:22:23;16.10;;;10.17;;
3004;SDS011;1512;51.486;6.610;2022-08-19T23:26:32;16.77;;;10.00;;
3004;SDS011;1512;51.486;6.610;2022-08-19T23:30:43;12.63;;;9.00;;
3004;SDS011;1512;51.486;6.610;2022-08-19T23:39:20;14.93;;;10.30;;
3004;SDS011;1512;51.486;6.610;2022-08-19T23:43:29;14.47;;;9.97;;
3004;SDS011;1512;51.486;6.610;2022-08-19T23:47:39;14.40;;;11.30;;
3004;SDS011;1512;51.486;6.610;2022-08-19T23:51:48;16.77;;;9.83;;
3004;SDS011;1512;51.486;6.610;2022-08-19T23:55:57;14.70;;;10.73;;
